sensor_id;sensor_type;location;lat;lon;timestamp;temperature;humidity
82782;DHT22;72517;47.260;11.422;2024-02-21T00:01:23;4.20;97.90
82782;DHT22;72517;47.260;11.422;2024-02-21T00:03:50;4.20;98.00
82782;DHT22;72517;47.260;11.422;2024-02-21T00:06:17;4.10;98.10
82782;DHT22;72517;47.260;11.422;2024-02-21T00:08:44;4.10;98.30
82782;DHT22;72517;47.260;11.422;2024-02-21T00:11:10;4.10;98.20
82782;DHT22;72517;47.260;11.422;2024-02-21T00:13:37;4.10;98.30
82782;DHT22;72517;47.260;11.422;2024-02-21T00:16:04;4.10;98.30
82782;DHT22;72517;47.260;11.422;2024-02-21T00:18:31;4.00;98.30
82782;DHT22;72517;47.260;11.422;2024-02-21T00:20:58;4.00;98.40
82782;DHT22;72517;47.260;11.422;2024-02-21T00:23:27;4.00;98.30
82782;DHT22;72517;47.260;11.422;2024-02-21T00:25:54;4.00;98.00
82782;DHT22;72517;47.260;11.422;2024-02-21T00:28:21;4.00;98.00
82782;DHT22;72517;47.260;11.422;2024-02-21T00:30:48;4.00;98.10
82782;DHT22;72517;47.260;11.422;2024-02-21T00:33:16;4.00;98.30
82782;DHT22;72517;47.260;11.422;2024-02-21T00:35:43;4.00;98.20
82782;DHT22;72517;47.260;11.422;2024-02-21T00:38:10;3.90;98.30
82782;DHT22;72517;47.260;11.422;2024-02-21T00:40:37;3.90;98.30
82782;DHT22;72517;47.260;11.422;2024-02-21T00:43:04;3.90;98.50
82782;DHT22;72517;47.260;11.422;2024-02-21T00:45:31;3.80;98.60
82782;DHT22;72517;47.260;11.422;2024-02-21T00:47:58;3.90;98.60
82782;DHT22;72517;47.260;11.422;2024-02-21T00:50:25;3.80;98.70
82782;DHT22;72517;47.260;11.422;2024-02-21T00:52:52;3.80;98.80
82782;DHT22;72517;47.260;11.422;2024-02-21T00:55:19;3.70;98.90
82782;DHT22;72517;47.260;11.422;2024-02-21T00:57:45;3.60;99.00
82782;DHT22;72517;47.260;11.422;2024-02-21T01:00:13;3.70;99.20
82782;DHT22;72517;47.260;11.422;2024-02-21T01:02:40;3.60;99.20
82782;DHT22;72517;47.260;11.422;2024-02-21T01:05:07;3.60;99.10
82782;DHT22;72517;47.260;11.422;2024-02-21T01:07:34;3.60;99.10
82782;DHT22;72517;47.260;11.422;2024-02-21T01:10:01;3.60;99.20
82782;DHT22;72517;47.260;11.422;2024-02-21T01:12:27;3.50;99.20
82782;DHT22;72517;47.260;11.422;2024-02-21T01:14:54;3.40;99.20
82782;DHT22;72517;47.260;11.422;2024-02-21T01:17:21;3.40;99.30
82782;DHT22;72517;47.260;11.422;2024-02-21T01:19:48;3.40;99.30
82782;DHT22;72517;47.260;11.422;2024-02-21T01:22:15;3.40;99.30
82782;DHT22;72517;47.260;11.422;2024-02-21T01:24:43;3.40;99.20
82782;DHT22;72517;47.260;11.422;2024-02-21T01:27:10;3.40;99.20
82782;DHT22;72517;47.260;11.422;2024-02-21T01:29:37;3.40;99.00
82782;DHT22;72517;47.260;11.422;2024-02-21T01:32:04;3.40;98.80
82782;DHT22;72517;47.260;11.422;2024-02-21T01:34:31;3.40;99.10
82782;DHT22;72517;47.260;11.422;2024-02-21T01:36:58;3.30;99.40
82782;DHT22;72517;47.260;11.422;2024-02-21T01:39:29;3.30;99.50
82782;DHT22;72517;47.260;11.422;2024-02-21T01:41:56;3.30;99.40
82782;DHT22;72517;47.260;11.422;2024-02-21T01:44:24;3.20;99.50
82782;DHT22;72517;47.260;11.422;2024-02-21T01:46:52;3.10;99.80
82782;DHT22;72517;47.260;11.422;2024-02-21T01:49:20;3.10;99.90
82782;DHT22;72517;47.260;11.422;2024-02-21T01:51:47;3.10;99.90
82782;DHT22;72517;47.260;11.422;2024-02-21T01:54:16;3.10;99.90
82782;DHT22;72517;47.260;11.422;2024-02-21T01:56:44;3.10;99.90
82782;DHT22;72517;47.260;11.422;2024-02-21T01:59:13;3.10;99.90
82782;DHT22;72517;47.260;11.422;2024-02-21T02:01:41;3.10;99.90
82782;DHT22;72517;47.260;11.422;2024-02-21T02:04:08;3.10;99.70
82782;DHT22;72517;47.260;11.422;2024-02-21T02:06:36;3.10;99.60
82782;DHT22;72517;47.260;11.422;2024-02-21T02:09:03;3.20;99.60
82782;DHT22;72517;47.260;11.422;2024-02-21T02:11:31;3.10;99.60
82782;DHT22;72517;47.260;11.422;2024-02-21T02:13:58;3.00;99.70
82782;DHT22;72517;47.260;11.422;2024-02-21T02:16:25;2.90;99.60
82782;DHT22;72517;47.260;11.422;2024-02-21T02:18:52;3.00;99.90
82782;DHT22;72517;47.260;11.422;2024-02-21T02:21:40;2.90;99.90
82782;DHT22;72517;47.260;11.422;2024-02-21T02:24:09;2.90;99.90
82782;DHT22;72517;47.260;11.422;2024-02-21T02:26:36;2.90;99.80
82782;DHT22;72517;47.260;11.422;2024-02-21T02:29:03;2.90;99.80
82782;DHT22;72517;47.260;11.422;2024-02-21T02:31:30;2.90;99.70
82782;DHT22;72517;47.260;11.422;2024-02-21T02:33:56;2.90;99.90
82782;DHT22;72517;47.260;11.422;2024-02-21T02:36:23;2.80;99.90
82782;DHT22;72517;47.260;11.422;2024-02-21T02:38:49;2.70;99.90
82782;DHT22;72517;47.260;11.422;2024-02-21T02:41:16;2.70;99.90
82782;DHT22;72517;47.260;11.422;2024-02-21T02:43:43;2.70;99.90
82782;DHT22;72517;47.260;11.422;2024-02-21T02:46:10;2.70;99.90
82782;DHT22;72517;47.260;11.422;2024-02-21T02:48:37;2.70;99.90
82782;DHT22;72517;47.260;11.422;2024-02-21T02:51:04;2.70;99.80
82782;DHT22;72517;47.260;11.422;2024-02-21T02:53:31;2.70;99.80
82782;DHT22;72517;47.260;11.422;2024-02-21T02:55:58;2.70;99.90
82782;DHT22;72517;47.260;11.422;2024-02-21T02:58:25;2.70;99.90
82782;DHT22;72517;47.260;11.422;2024-02-21T03:00:52;2.70;99.90
82782;DHT22;72517;47.260;11.422;2024-02-21T03:03:19;2.70;99.90
82782;DHT22;72517;47.260;11.422;2024-02-21T03:05:46;2.70;99.90
82782;DHT22;72517;47.260;11.422;2024-02-21T03:08:13;2.70;99.90
82782;DHT22;72517;47.260;11.422;2024-02-21T03:10:40;2.60;99.90
82782;DHT22;72517;47.260;11.422;2024-02-21T03:13:07;2.60;99.90
82782;DHT22;72517;47.260;11.422;2024-02-21T03:15:34;2.60;99.90
82782;DHT22;72517;47.260;11.422;2024-02-21T03:18:01;2.60;99.90
82782;DHT22;72517;47.260;11.422;2024-02-21T03:20:28;2.60;99.90
82782;DHT22;72517;47.260;11.422;2024-02-21T03:22:55;2.50;99.90
82782;DHT22;72517;47.260;11.422;2024-02-21T03:25:22;2.50;99.90
82782;DHT22;72517;47.260;11.422;2024-02-21T03:27:48;2.50;99.90
82782;DHT22;72517;47.260;11.422;2024-02-21T03:30:15;2.50;99.90
82782;DHT22;72517;47.260;11.422;2024-02-21T03:32:42;2.40;99.90
82782;DHT22;72517;47.260;11.422;2024-02-21T03:35:09;2.50;99.90
82782;DHT22;72517;47.260;11.422;2024-02-21T03:37:36;2.40;99.90
82782;DHT22;72517;47.260;11.422;2024-02-21T03:40:07;2.50;99.90
82782;DHT22;72517;47.260;11.422;2024-02-21T03:42:34;2.50;99.90
82782;DHT22;72517;47.260;11.422;2024-02-21T03:45:01;2.50;99.90
82782;DHT22;72517;47.260;11.422;2024-02-21T03:47:29;2.50;99.90
82782;DHT22;72517;47.260;11.422;2024-02-21T03:49:56;2.50;99.90
82782;DHT22;72517;47.260;11.422;2024-02-21T03:52:23;2.40;99.60
82782;DHT22;72517;47.260;11.422;2024-02-21T03:54:50;2.40;99.60
82782;DHT22;72517;47.260;11.422;2024-02-21T03:57:17;2.30;99.30
82782;DHT22;72517;47.260;11.422;2024-02-21T03:59:44;2.30;99.60
82782;DHT22;72517;47.260;11.422;2024-02-21T04:02:11;2.30;99.90
82782;DHT22;72517;47.260;11.422;2024-02-21T04:04:37;2.30;99.90
82782;DHT22;72517;47.260;11.422;2024-02-21T04:07:05;2.30;99.90
82782;DHT22;72517;47.260;11.422;2024-02-21T04:09:35;2.20;99.90
82782;DHT22;72517;47.260;11.422;2024-02-21T04:12:03;2.20;99.90
82782;DHT22;72517;47.260;11.422;2024-02-21T04:14:30;2.20;99.90
82782;DHT22;72517;47.260;11.422;2024-02-21T04:16:57;2.20;99.90
82782;DHT22;72517;47.260;11.422;2024-02-21T04:19:24;2.20;99.80
82782;DHT22;72517;47.260;11.422;2024-02-21T04:21:51;2.20;99.90
82782;DHT22;72517;47.260;11.422;2024-02-21T04:24:17;2.20;99.90
82782;DHT22;72517;47.260;11.422;2024-02-21T04:26:44;2.20;99.90
82782;DHT22;72517;47.260;11.422;2024-02-21T04:29:11;2.20;99.90
82782;DHT22;72517;47.260;11.422;2024-02-21T04:31:38;2.10;99.90
82782;DHT22;72517;47.260;11.422;2024-02-21T04:34:06;2.10;99.90
82782;DHT22;72517;47.260;11.422;2024-02-21T04:36:33;2.00;99.90
82782;DHT22;72517;47.260;11.422;2024-02-21T04:39:00;2.10;99.90
82782;DHT22;72517;47.260;11.422;2024-02-21T04:41:27;2.10;99.70
82782;DHT22;72517;47.260;11.422;2024-02-21T04:43:54;2.20;99.90
82782;DHT22;72517;47.260;11.422;2024-02-21T04:46:20;2.20;99.70
82782;DHT22;72517;47.260;11.422;2024-02-21T04:48:47;2.30;99.20
82782;DHT22;72517;47.260;11.422;2024-02-21T04:51:14;2.20;99.30
82782;DHT22;72517;47.260;11.422;2024-02-21T04:53:41;2.20;99.40
82782;DHT22;72517;47.260;11.422;2024-02-21T04:56:08;2.20;99.60
82782;DHT22;72517;47.260;11.422;2024-02-21T04:58:38;2.10;99.90
82782;DHT22;72517;47.260;11.422;2024-02-21T05:01:05;2.00;99.90
82782;DHT22;72517;47.260;11.422;2024-02-21T05:03:33;2.00;99.90
82782;DHT22;72517;47.260;11.422;2024-02-21T05:06:00;2.00;99.70
82782;DHT22;72517;47.260;11.422;2024-02-21T05:08:27;2.00;99.50
82782;DHT22;72517;47.260;11.422;2024-02-21T05:10:54;2.00;99.50
82782;DHT22;72517;47.260;11.422;2024-02-21T05:13:21;2.10;99.70
82782;DHT22;72517;47.260;11.422;2024-02-21T05:15:48;2.10;99.50
82782;DHT22;72517;47.260;11.422;2024-02-21T05:18:15;2.00;99.20
82782;DHT22;72517;47.260;11.422;2024-02-21T05:20:42;2.10;99.10
82782;DHT22;72517;47.260;11.422;2024-02-21T05:23:08;2.10;98.50
82782;DHT22;72517;47.260;11.422;2024-02-21T05:25:35;2.10;98.70
82782;DHT22;72517;47.260;11.422;2024-02-21T05:28:03;2.10;98.60
82782;DHT22;72517;47.260;11.422;2024-02-21T05:30:31;2.00;98.90
82782;DHT22;72517;47.260;11.422;2024-02-21T05:32:58;2.00;98.60
82782;DHT22;72517;47.260;11.422;2024-02-21T05:35:29;2.00;98.70
82782;DHT22;72517;47.260;11.422;2024-02-21T05:37:55;2.00;98.90
82782;DHT22;72517;47.260;11.422;2024-02-21T05:40:22;2.00;99.00
82782;DHT22;72517;47.260;11.422;2024-02-21T05:42:50;2.00;98.90
82782;DHT22;72517;47.260;11.422;2024-02-21T05:45:18;2.00;98.90
82782;DHT22;72517;47.260;11.422;2024-02-21T05:47:45;2.00;99.10
82782;DHT22;72517;47.260;11.422;2024-02-21T05:50:11;2.00;99.20
82782;DHT22;72517;47.260;11.422;2024-02-21T05:52:38;1.90;98.80
82782;DHT22;72517;47.260;11.422;2024-02-21T05:55:07;1.90;98.70
82782;DHT22;72517;47.260;11.422;2024-02-21T05:57:34;1.90;99.00
82782;DHT22;72517;47.260;11.422;2024-02-21T06:00:04;1.90;99.20
82782;DHT22;72517;47.260;11.422;2024-02-21T06:02:31;1.90;99.20
82782;DHT22;72517;47.260;11.422;2024-02-21T06:04:58;1.90;99.30
82782;DHT22;72517;47.260;11.422;2024-02-21T06:07:25;1.70;99.40
82782;DHT22;72517;47.260;11.422;2024-02-21T06:09:52;1.70;99.70
82782;DHT22;72517;47.260;11.422;2024-02-21T06:12:19;1.80;99.80
82782;DHT22;72517;47.260;11.422;2024-02-21T06:14:46;1.80;99.60
82782;DHT22;72517;47.260;11.422;2024-02-21T06:17:14;1.90;99.50
82782;DHT22;72517;47.260;11.422;2024-02-21T06:19:42;1.90;99.30
82782;DHT22;72517;47.260;11.422;2024-02-21T06:22:09;2.00;99.30
82782;DHT22;72517;47.260;11.422;2024-02-21T06:24:36;2.00;99.30
82782;DHT22;72517;47.260;11.422;2024-02-21T06:27:04;2.10;99.00
82782;DHT22;72517;47.260;11.422;2024-02-21T06:29:34;2.10;98.80
82782;DHT22;72517;47.260;11.422;2024-02-21T06:32:01;2.10;98.80
82782;DHT22;72517;47.260;11.422;2024-02-21T06:34:28;2.10;98.60
82782;DHT22;72517;47.260;11.422;2024-02-21T06:36:55;2.10;98.50
82782;DHT22;72517;47.260;11.422;2024-02-21T06:39:22;2.10;98.40
82782;DHT22;72517;47.260;11.422;2024-02-21T06:41:50;2.20;98.10
82782;DHT22;72517;47.260;11.422;2024-02-21T06:44:18;2.20;98.30
82782;DHT22;72517;47.260;11.422;2024-02-21T06:46:45;2.20;98.20
82782;DHT22;72517;47.260;11.422;2024-02-21T06:49:12;2.10;97.90
82782;DHT22;72517;47.260;11.422;2024-02-21T06:51:44;2.20;98.10
82782;DHT22;72517;47.260;11.422;2024-02-21T06:54:11;2.10;98.30
82782;DHT22;72517;47.260;11.422;2024-02-21T06:56:40;2.10;98.50
82782;DHT22;72517;47.260;11.422;2024-02-21T06:59:07;2.10;98.50
82782;DHT22;72517;47.260;11.422;2024-02-21T07:01:34;2.20;99.00
82782;DHT22;72517;47.260;11.422;2024-02-21T07:04:00;2.40;99.10
82782;DHT22;72517;47.260;11.422;2024-02-21T07:06:27;2.50;98.20
82782;DHT22;72517;47.260;11.422;2024-02-21T07:08:55;2.70;97.90
82782;DHT22;72517;47.260;11.422;2024-02-21T07:11:21;3.00;98.10
82782;DHT22;72517;47.260;11.422;2024-02-21T07:13:48;3.30;97.00
82782;DHT22;72517;47.260;11.422;2024-02-21T07:16:15;3.60;96.70
82782;DHT22;72517;47.260;11.422;2024-02-21T07:18:42;3.80;95.30
82782;DHT22;72517;47.260;11.422;2024-02-21T07:21:09;3.90;94.80
82782;DHT22;72517;47.260;11.422;2024-02-21T07:23:36;4.00;94.20
82782;DHT22;72517;47.260;11.422;2024-02-21T07:26:04;4.00;93.80
82782;DHT22;72517;47.260;11.422;2024-02-21T07:28:31;4.00;93.70
82782;DHT22;72517;47.260;11.422;2024-02-21T07:30:59;4.10;93.00
82782;DHT22;72517;47.260;11.422;2024-02-21T07:33:26;4.30;93.00
82782;DHT22;72517;47.260;11.422;2024-02-21T07:35:53;4.40;92.50
82782;DHT22;72517;47.260;11.422;2024-02-21T07:38:20;4.70;91.60
82782;DHT22;72517;47.260;11.422;2024-02-21T07:40:48;4.90;90.80
82782;DHT22;72517;47.260;11.422;2024-02-21T07:43:14;5.40;90.00
82782;DHT22;72517;47.260;11.422;2024-02-21T07:45:41;5.70;87.00
82782;DHT22;72517;47.260;11.422;2024-02-21T07:48:08;5.80;85.10
82782;DHT22;72517;47.260;11.422;2024-02-21T07:50:35;5.80;84.20
82782;DHT22;72517;47.260;11.422;2024-02-21T07:53:03;6.00;82.60
82782;DHT22;72517;47.260;11.422;2024-02-21T07:55:29;6.30;81.40
82782;DHT22;72517;47.260;11.422;2024-02-21T07:57:56;7.30;81.60
82782;DHT22;72517;47.260;11.422;2024-02-21T08:00:23;7.40;74.60
82782;DHT22;72517;47.260;11.422;2024-02-21T08:02:50;7.70;72.20
82782;DHT22;72517;47.260;11.422;2024-02-21T08:05:17;8.00;70.80
82782;DHT22;72517;47.260;11.422;2024-02-21T08:07:44;8.20;69.40
82782;DHT22;72517;47.260;11.422;2024-02-21T08:10:11;8.50;67.80
82782;DHT22;72517;47.260;11.422;2024-02-21T08:12:38;8.70;66.60
82782;DHT22;72517;47.260;11.422;2024-02-21T08:15:05;8.70;65.70
82782;DHT22;72517;47.260;11.422;2024-02-21T08:17:33;8.60;64.50
82782;DHT22;72517;47.260;11.422;2024-02-21T08:20:00;8.50;64.30
82782;DHT22;72517;47.260;11.422;2024-02-21T08:22:28;8.40;64.80
82782;DHT22;72517;47.260;11.422;2024-02-21T08:24:55;8.50;65.00
82782;DHT22;72517;47.260;11.422;2024-02-21T08:27:22;8.50;63.20
82782;DHT22;72517;47.260;11.422;2024-02-21T08:29:48;8.50;63.50
82782;DHT22;72517;47.260;11.422;2024-02-21T08:32:15;8.70;64.30
82782;DHT22;72517;47.260;11.422;2024-02-21T08:34:42;8.90;63.30
82782;DHT22;72517;47.260;11.422;2024-02-21T08:37:09;9.00;62.40
82782;DHT22;72517;47.260;11.422;2024-02-21T08:39:37;9.30;62.80
82782;DHT22;72517;47.260;11.422;2024-02-21T08:42:04;9.50;61.00
82782;DHT22;72517;47.260;11.422;2024-02-21T08:44:31;9.90;60.70
82782;DHT22;72517;47.260;11.422;2024-02-21T08:46:58;10.50;57.50
82782;DHT22;72517;47.260;11.422;2024-02-21T08:49:25;11.80;56.70
82782;DHT22;72517;47.260;11.422;2024-02-21T08:51:54;13.60;53.50
82782;DHT22;72517;47.260;11.422;2024-02-21T08:54:20;15.50;49.60
82782;DHT22;72517;47.260;11.422;2024-02-21T08:56:47;15.90;44.70
82782;DHT22;72517;47.260;11.422;2024-02-21T08:59:14;16.30;41.60
82782;DHT22;72517;47.260;11.422;2024-02-21T09:01:42;17.40;40.90
82782;DHT22;72517;47.260;11.422;2024-02-21T09:04:09;17.30;38.60
82782;DHT22;72517;47.260;11.422;2024-02-21T09:06:35;17.80;38.70
82782;DHT22;72517;47.260;11.422;2024-02-21T09:09:07;18.40;37.60
82782;DHT22;72517;47.260;11.422;2024-02-21T09:11:35;20.30;35.90
82782;DHT22;72517;47.260;11.422;2024-02-21T09:14:02;22.00;34.80
82782;DHT22;72517;47.260;11.422;2024-02-21T09:16:31;24.10;32.60
82782;DHT22;72517;47.260;11.422;2024-02-21T09:18:58;26.30;30.00
82782;DHT22;72517;47.260;11.422;2024-02-21T09:21:26;27.70;28.30
82782;DHT22;72517;47.260;11.422;2024-02-21T09:23:53;29.10;27.20
82782;DHT22;72517;47.260;11.422;2024-02-21T09:26:20;31.20;26.30
82782;DHT22;72517;47.260;11.422;2024-02-21T09:28:47;31.70;24.70
82782;DHT22;72517;47.260;11.422;2024-02-21T09:31:14;33.00;24.00
82782;DHT22;72517;47.260;11.422;2024-02-21T09:33:41;33.30;23.40
82782;DHT22;72517;47.260;11.422;2024-02-21T09:36:08;34.50;22.80
82782;DHT22;72517;47.260;11.422;2024-02-21T09:38:35;35.00;22.60
82782;DHT22;72517;47.260;11.422;2024-02-21T09:41:18;35.50;22.00
82782;DHT22;72517;47.260;11.422;2024-02-21T09:43:45;35.70;21.40
82782;DHT22;72517;47.260;11.422;2024-02-21T09:46:17;35.80;21.80
82782;DHT22;72517;47.260;11.422;2024-02-21T09:49:17;35.80;20.90
82782;DHT22;72517;47.260;11.422;2024-02-21T09:51:49;35.40;21.00
82782;DHT22;72517;47.260;11.422;2024-02-21T09:54:18;35.50;20.60
82782;DHT22;72517;47.260;11.422;2024-02-21T09:56:46;34.50;20.90
82782;DHT22;72517;47.260;11.422;2024-02-21T09:59:15;34.50;21.00
82782;DHT22;72517;47.260;11.422;2024-02-21T10:01:43;35.20;21.00
82782;DHT22;72517;47.260;11.422;2024-02-21T10:04:12;35.90;21.30
82782;DHT22;72517;47.260;11.422;2024-02-21T10:06:39;35.40;20.40
82782;DHT22;72517;47.260;11.422;2024-02-21T10:09:06;35.70;20.30
82782;DHT22;72517;47.260;11.422;2024-02-21T10:11:33;36.10;20.10
82782;DHT22;72517;47.260;11.422;2024-02-21T10:16:31;36.50;20.20
82782;DHT22;72517;47.260;11.422;2024-02-21T10:18:59;36.20;19.00
82782;DHT22;72517;47.260;11.422;2024-02-21T10:21:26;35.90;19.30
82782;DHT22;72517;47.260;11.422;2024-02-21T10:23:53;36.60;19.20
82782;DHT22;72517;47.260;11.422;2024-02-21T10:26:20;36.60;19.30
82782;DHT22;72517;47.260;11.422;2024-02-21T10:28:48;37.00;19.30
82782;DHT22;72517;47.260;11.422;2024-02-21T10:31:29;36.60;18.70
82782;DHT22;72517;47.260;11.422;2024-02-21T10:33:59;36.80;18.60
82782;DHT22;72517;47.260;11.422;2024-02-21T10:36:29;38.20;18.30
82782;DHT22;72517;47.260;11.422;2024-02-21T10:38:56;39.60;18.50
82782;DHT22;72517;47.260;11.422;2024-02-21T10:41:23;40.80;17.40
82782;DHT22;72517;47.260;11.422;2024-02-21T10:43:53;41.80;17.30
82782;DHT22;72517;47.260;11.422;2024-02-21T10:46:21;42.00;17.10
82782;DHT22;72517;47.260;11.422;2024-02-21T10:48:53;41.90;17.10
82782;DHT22;72517;47.260;11.422;2024-02-21T10:51:27;42.30;16.60
82782;DHT22;72517;47.260;11.422;2024-02-21T10:54:13;42.60;16.90
82782;DHT22;72517;47.260;11.422;2024-02-21T10:56:40;43.00;16.70
82782;DHT22;72517;47.260;11.422;2024-02-21T10:59:08;42.80;16.60
82782;DHT22;72517;47.260;11.422;2024-02-21T11:01:35;41.60;16.30
82782;DHT22;72517;47.260;11.422;2024-02-21T11:04:06;41.20;16.40
82782;DHT22;72517;47.260;11.422;2024-02-21T11:06:36;40.70;16.80
82782;DHT22;72517;47.260;11.422;2024-02-21T11:09:05;41.70;17.10
82782;DHT22;72517;47.260;11.422;2024-02-21T11:11:34;42.80;16.90
82782;DHT22;72517;47.260;11.422;2024-02-21T11:14:07;42.50;16.20
82782;DHT22;72517;47.260;11.422;2024-02-21T11:16:41;42.80;16.90
82782;DHT22;72517;47.260;11.422;2024-02-21T11:19:10;43.10;16.40
82782;DHT22;72517;47.260;11.422;2024-02-21T11:21:45;42.90;16.00
82782;DHT22;72517;47.260;11.422;2024-02-21T11:24:13;42.50;16.00
82782;DHT22;72517;47.260;11.422;2024-02-21T11:26:40;42.40;16.00
82782;DHT22;72517;47.260;11.422;2024-02-21T11:29:08;41.70;15.70
82782;DHT22;72517;47.260;11.422;2024-02-21T11:31:41;41.00;15.80
82782;DHT22;72517;47.260;11.422;2024-02-21T11:34:11;40.60;15.80
82782;DHT22;72517;47.260;11.422;2024-02-21T11:36:52;40.30;15.90
82782;DHT22;72517;47.260;11.422;2024-02-21T11:39:24;39.60;15.80
82782;DHT22;72517;47.260;11.422;2024-02-21T11:42:07;38.70;15.80
82782;DHT22;72517;47.260;11.422;2024-02-21T11:44:35;38.50;16.00
82782;DHT22;72517;47.260;11.422;2024-02-21T11:47:04;37.70;15.80
82782;DHT22;72517;47.260;11.422;2024-02-21T11:49:35;37.10;16.10
82782;DHT22;72517;47.260;11.422;2024-02-21T11:52:03;36.60;16.30
82782;DHT22;72517;47.260;11.422;2024-02-21T11:54:31;36.00;16.20
82782;DHT22;72517;47.260;11.422;2024-02-21T11:56:59;35.30;16.40
82782;DHT22;72517;47.260;11.422;2024-02-21T11:59:26;34.40;16.90
82782;DHT22;72517;47.260;11.422;2024-02-21T12:01:53;33.40;16.50
82782;DHT22;72517;47.260;11.422;2024-02-21T12:04:20;32.90;16.70
82782;DHT22;72517;47.260;11.422;2024-02-21T12:06:49;32.60;17.00
82782;DHT22;72517;47.260;11.422;2024-02-21T12:09:16;32.80;17.20
82782;DHT22;72517;47.260;11.422;2024-02-21T12:11:44;32.30;17.00
82782;DHT22;72517;47.260;11.422;2024-02-21T12:14:16;32.20;17.30
82782;DHT22;72517;47.260;11.422;2024-02-21T12:16:44;32.30;17.00
82782;DHT22;72517;47.260;11.422;2024-02-21T12:19:13;32.70;17.00
82782;DHT22;72517;47.260;11.422;2024-02-21T12:21:42;33.30;17.40
82782;DHT22;72517;47.260;11.422;2024-02-21T12:24:21;33.90;17.10
82782;DHT22;72517;47.260;11.422;2024-02-21T12:26:48;34.60;16.90
82782;DHT22;72517;47.260;11.422;2024-02-21T12:29:15;34.40;16.60
82782;DHT22;72517;47.260;11.422;2024-02-21T12:31:42;34.30;16.70
82782;DHT22;72517;47.260;11.422;2024-02-21T12:34:09;34.70;17.10
82782;DHT22;72517;47.260;11.422;2024-02-21T12:36:41;35.60;17.00
82782;DHT22;72517;47.260;11.422;2024-02-21T12:39:10;36.60;16.90
82782;DHT22;72517;47.260;11.422;2024-02-21T12:41:38;37.70;17.10
82782;DHT22;72517;47.260;11.422;2024-02-21T12:44:06;37.90;16.30
82782;DHT22;72517;47.260;11.422;2024-02-21T12:46:36;38.60;16.70
82782;DHT22;72517;47.260;11.422;2024-02-21T12:49:04;38.80;16.10
82782;DHT22;72517;47.260;11.422;2024-02-21T12:51:32;38.70;16.10
82782;DHT22;72517;47.260;11.422;2024-02-21T12:53:59;39.60;16.40
82782;DHT22;72517;47.260;11.422;2024-02-21T12:56:26;39.30;15.90
82782;DHT22;72517;47.260;11.422;2024-02-21T12:58:54;38.60;16.20
82782;DHT22;72517;47.260;11.422;2024-02-21T13:01:21;38.70;16.00
82782;DHT22;72517;47.260;11.422;2024-02-21T13:03:48;38.10;16.10
82782;DHT22;72517;47.260;11.422;2024-02-21T13:06:15;39.00;16.50
82782;DHT22;72517;47.260;11.422;2024-02-21T13:08:41;39.80;16.50
82782;DHT22;72517;47.260;11.422;2024-02-21T13:11:09;40.90;15.90
82782;DHT22;72517;47.260;11.422;2024-02-21T13:13:36;40.10;15.70
82782;DHT22;72517;47.260;11.422;2024-02-21T13:16:04;38.90;15.70
82782;DHT22;72517;47.260;11.422;2024-02-21T13:18:31;38.20;15.80
82782;DHT22;72517;47.260;11.422;2024-02-21T13:20:58;37.70;16.00
82782;DHT22;72517;47.260;11.422;2024-02-21T13:23:24;36.00;16.10
82782;DHT22;72517;47.260;11.422;2024-02-21T13:25:51;35.90;16.30
82782;DHT22;72517;47.260;11.422;2024-02-21T13:28:18;35.80;15.90
82782;DHT22;72517;47.260;11.422;2024-02-21T13:30:45;34.60;15.90
82782;DHT22;72517;47.260;11.422;2024-02-21T13:33:12;33.80;16.10
82782;DHT22;72517;47.260;11.422;2024-02-21T13:35:40;33.20;16.60
82782;DHT22;72517;47.260;11.422;2024-02-21T13:38:07;33.00;16.60
82782;DHT22;72517;47.260;11.422;2024-02-21T13:40:35;33.00;16.80
82782;DHT22;72517;47.260;11.422;2024-02-21T13:43:02;33.50;16.70
82782;DHT22;72517;47.260;11.422;2024-02-21T13:45:29;33.40;16.60
82782;DHT22;72517;47.260;11.422;2024-02-21T13:47:57;33.20;16.60
82782;DHT22;72517;47.260;11.422;2024-02-21T13:50:30;32.70;17.00
82782;DHT22;72517;47.260;11.422;2024-02-21T13:52:57;32.60;17.30
82782;DHT22;72517;47.260;11.422;2024-02-21T13:55:24;32.50;16.70
82782;DHT22;72517;47.260;11.422;2024-02-21T13:57:52;32.30;16.60
82782;DHT22;72517;47.260;11.422;2024-02-21T14:00:19;32.00;17.10
82782;DHT22;72517;47.260;11.422;2024-02-21T14:02:46;31.50;17.30
82782;DHT22;72517;47.260;11.422;2024-02-21T14:05:13;30.70;17.10
82782;DHT22;72517;47.260;11.422;2024-02-21T14:07:40;29.80;17.10
82782;DHT22;72517;47.260;11.422;2024-02-21T14:10:07;28.50;17.50
82782;DHT22;72517;47.260;11.422;2024-02-21T14:12:35;27.70;18.10
82782;DHT22;72517;47.260;11.422;2024-02-21T14:15:01;27.40;18.50
82782;DHT22;72517;47.260;11.422;2024-02-21T14:17:28;27.20;18.50
82782;DHT22;72517;47.260;11.422;2024-02-21T14:19:55;26.90;18.70
82782;DHT22;72517;47.260;11.422;2024-02-21T14:22:22;26.50;18.70
82782;DHT22;72517;47.260;11.422;2024-02-21T14:24:49;26.00;19.10
82782;DHT22;72517;47.260;11.422;2024-02-21T14:27:16;25.70;19.60
82782;DHT22;72517;47.260;11.422;2024-02-21T14:29:42;25.40;19.60
82782;DHT22;72517;47.260;11.422;2024-02-21T14:32:10;25.10;19.60
82782;DHT22;72517;47.260;11.422;2024-02-21T14:34:39;24.60;21.10
82782;DHT22;72517;47.260;11.422;2024-02-21T14:37:06;24.00;20.70
82782;DHT22;72517;47.260;11.422;2024-02-21T14:39:33;23.40;20.80
82782;DHT22;72517;47.260;11.422;2024-02-21T14:42:01;22.90;20.90
82782;DHT22;72517;47.260;11.422;2024-02-21T14:44:28;22.30;20.50
82782;DHT22;72517;47.260;11.422;2024-02-21T14:46:54;22.00;21.00
82782;DHT22;72517;47.260;11.422;2024-02-21T14:49:21;21.20;20.90
82782;DHT22;72517;47.260;11.422;2024-02-21T14:51:48;20.70;21.10
82782;DHT22;72517;47.260;11.422;2024-02-21T14:54:15;20.10;21.20
82782;DHT22;72517;47.260;11.422;2024-02-21T14:56:42;19.70;21.30
82782;DHT22;72517;47.260;11.422;2024-02-21T14:59:09;19.30;21.70
82782;DHT22;72517;47.260;11.422;2024-02-21T15:01:36;19.10;22.00
82782;DHT22;72517;47.260;11.422;2024-02-21T15:04:05;18.70;22.70
82782;DHT22;72517;47.260;11.422;2024-02-21T15:06:32;18.40;22.70
82782;DHT22;72517;47.260;11.422;2024-02-21T15:09:01;18.20;22.90
82782;DHT22;72517;47.260;11.422;2024-02-21T15:11:29;18.10;23.10
82782;DHT22;72517;47.260;11.422;2024-02-21T15:13:56;18.00;24.80
82782;DHT22;72517;47.260;11.422;2024-02-21T15:16:23;17.90;24.40
82782;DHT22;72517;47.260;11.422;2024-02-21T15:18:50;17.80;25.40
82782;DHT22;72517;47.260;11.422;2024-02-21T15:21:17;17.70;26.00
82782;DHT22;72517;47.260;11.422;2024-02-21T15:23:44;17.60;27.20
82782;DHT22;72517;47.260;11.422;2024-02-21T15:26:11;17.20;28.60
82782;DHT22;72517;47.260;11.422;2024-02-21T15:28:39;16.90;29.80
82782;DHT22;72517;47.260;11.422;2024-02-21T15:31:06;16.70;30.70